Time;durP1;ratioP1;P1;durP2;ratioP2;P2;SDS_P1;SDS_P2;PMS_P1;PMS_P2;Temp;Humidity;BMP_temperature;BMP_pressure;BME280_temperature;BME280_humidity;BME280_pressure;Samples;Min_cycle;Max_cycle;Signal;HPM_P1;HPM_P2
2021/04/16 00:00:29;;;;;;;3.83;1.40;;;6.80;99.90;;;;;;5108795;28;20209;-66
2021/04/16 00:02:56;;;;;;;6.03;1.60;;;6.90;99.90;;;;;;5122799;27;20243;-66
2021/04/16 00:05:23;;;;;;;2.83;1.27;;;6.90;99.90;;;;;;5140999;27;20300;-66
2021/04/16 00:07:50;;;;;;;3.00;1.30;;;6.80;99.90;;;;;;5123687;27;20239;-66
2021/04/16 00:10:23;;;;;;;17.50;3.23;;;6.90;99.90;;;;;;5127483;27;20193;-66
2021/04/16 00:12:50;;;;;;;12.17;2.57;;;6.90;99.90;;;;;;5124230;27;20285;-66
2021/04/16 00:15:20;;;;;;;9.13;1.70;;;6.90;99.90;;;;;;5127145;27;20229;-66
2021/04/16 00:17:48;;;;;;;5.40;1.53;;;6.90;99.90;;;;;;5119115;27;20307;-66
2021/04/16 00:20:18;;;;;;;3.77;1.80;;;6.90;99.90;;;;;;5119927;27;20221;-66
2021/04/16 00:22:44;;;;;;;5.47;1.70;;;6.90;99.90;;;;;;5116460;27;20225;-66
2021/04/16 00:25:16;;;;;;;9.10;2.50;;;7.00;99.90;;;;;;5129103;27;20200;-66
2021/04/16 00:27:43;;;;;;;3.20;1.50;;;7.00;99.90;;;;;;5125604;27;20545;-66
2021/04/16 00:30:11;;;;;;;5.90;1.50;;;6.90;99.90;;;;;;5123404;27;20603;-66
2021/04/16 00:32:39;;;;;;;5.23;1.97;;;7.00;99.90;;;;;;5108108;28;20205;-67
2021/04/16 00:35:09;;;;;;;9.43;1.80;;;7.00;99.90;;;;;;5110074;28;20656;-66
2021/04/16 00:37:36;;;;;;;7.03;1.40;;;7.10;99.90;;;;;;5110437;28;20276;-65
2021/04/16 00:40:05;;;;;;;4.63;2.03;;;7.10;99.90;;;;;;5107216;28;20221;-66
2021/04/16 00:42:31;;;;;;;8.07;2.30;;;7.10;99.90;;;;;;5102364;28;20208;-66
2021/04/16 00:44:58;;;;;;;10.97;3.30;;;7.10;99.90;;;;;;5107060;28;20209;-67
2021/04/16 00:47:25;;;;;;;8.43;2.60;;;7.10;99.90;;;;;;5110125;28;20198;-67
2021/04/16 00:50:10;;;;;;;12.27;3.03;;;7.10;99.90;;;;;;5105536;28;20646;-67
2021/04/16 00:52:38;;;;;;;10.20;2.77;;;7.10;99.90;;;;;;5109155;28;20254;-67
2021/04/16 00:55:07;;;;;;;10.10;2.90;;;7.10;99.90;;;;;;5109310;28;20292;-67
2021/04/16 00:57:33;;;;;;;17.97;3.47;;;7.10;99.90;;;;;;5108405;28;20236;-67
2021/04/16 01:00:01;;;;;;;13.83;4.33;;;7.10;99.90;;;;;;5112381;27;20221;-67
2021/04/16 01:02:28;;;;;;;11.67;3.33;;;7.10;99.90;;;;;;5110132;27;20227;-67
2021/04/16 01:04:54;;;;;;;9.30;2.93;;;7.10;99.90;;;;;;5109512;28;20202;-67
2021/04/16 01:07:22;;;;;;;9.53;2.63;;;7.10;99.90;;;;;;5110200;28;20510;-67
2021/04/16 01:09:50;;;;;;;10.27;2.60;;;7.10;99.90;;;;;;5112433;27;20192;-67
2021/04/16 01:12:18;;;;;;;11.03;3.20;;;7.10;99.90;;;;;;5121126;27;20275;-67
2021/04/16 01:14:46;;;;;;;8.27;2.70;;;7.10;99.90;;;;;;5108109;27;20272;-67
2021/04/16 01:17:15;;;;;;;9.80;2.57;;;7.10;99.90;;;;;;5107888;28;20206;-67
2021/04/16 01:19:50;;;;;;;8.47;2.50;;;7.10;99.90;;;;;;5114293;27;20313;-67
2021/04/16 01:22:23;;;;;;;6.83;1.83;;;7.10;99.90;;;;;;5116640;27;20564;-67
2021/04/16 01:24:50;;;;;;;6.40;1.80;;;7.00;99.90;;;;;;5106891;27;20193;-67
2021/04/16 01:27:17;;;;;;;2.00;1.10;;;7.00;99.90;;;;;;5111772;27;20281;-67
2021/04/16 01:29:46;;;;;;;6.60;1.80;;;7.00;99.90;;;;;;5114150;27;20216;-67
2021/04/16 01:32:19;;;;;;;8.03;3.03;;;7.00;99.90;;;;;;5127072;27;20681;-67
2021/04/16 01:34:46;;;;;;;6.67;2.20;;;7.00;99.90;;;;;;5126852;27;20213;-67
2021/04/16 01:37:12;;;;;;;4.87;2.07;;;6.90;99.90;;;;;;5125923;27;20308;-66
2021/04/16 01:39:39;;;;;;;5.93;2.13;;;6.90;99.90;;;;;;5100857;28;20624;-66
2021/04/16 01:42:08;;;;;;;7.87;2.47;;;6.90;99.90;;;;;;5106281;28;20225;-66
2021/04/16 01:44:34;;;;;;;5.80;2.67;;;7.00;99.90;;;;;;5108168;28;20209;-66
2021/04/16 01:47:06;;;;;;;4.60;2.30;;;7.00;99.90;;;;;;5109352;28;20190;-66
2021/04/16 01:49:36;;;;;;;9.50;2.57;;;7.00;99.90;;;;;;5107718;28;20268;-66
2021/04/16 01:52:03;;;;;;;6.73;2.27;;;7.00;99.90;;;;;;5109495;28;20205;-65
2021/04/16 01:54:35;;;;;;;4.63;1.80;;;7.00;99.90;;;;;;5107445;28;20774;-66
2021/04/16 01:57:06;;;;;;;2.97;2.03;;;7.00;99.90;;;;;;5106708;28;20197;-65
2021/04/16 01:59:36;;;;;;;3.53;1.90;;;7.00;99.90;;;;;;5107177;28;20701;-65
2021/04/16 02:02:04;;;;;;;5.37;1.43;;;7.00;99.90;;;;;;5103392;27;20677;-65
2021/04/16 02:04:30;;;;;;;6.20;1.90;;;7.10;99.90;;;;;;5114280;28;20560;-65
2021/04/16 02:06:57;;;;;;;10.70;2.23;;;7.00;99.90;;;;;;5114991;27;20209;-65
2021/04/16 02:09:25;;;;;;;4.77;1.57;;;7.00;99.90;;;;;;5115160;28;20276;-66
2021/04/16 02:11:53;;;;;;;7.70;2.13;;;7.00;99.90;;;;;;5112245;28;20226;-65
2021/04/16 02:14:21;;;;;;;5.37;2.67;;;7.00;99.90;;;;;;5117596;28;20202;-66
2021/04/16 02:16:51;;;;;;;6.57;2.20;;;7.00;99.90;;;;;;5111630;28;20664;-66
2021/04/16 02:19:18;;;;;;;9.70;2.97;;;7.00;99.90;;;;;;5107424;28;20225;-66
2021/04/16 02:21:45;;;;;;;4.83;2.63;;;7.00;99.90;;;;;;5109129;28;20224;-66
2021/04/16 02:24:12;;;;;;;11.23;3.27;;;7.00;99.90;;;;;;5106935;28;20228;-66
2021/04/16 02:26:39;;;;;;;8.10;3.13;;;7.00;99.90;;;;;;5109439;28;20199;-66
2021/04/16 02:29:08;;;;;;;9.00;3.33;;;7.00;99.90;;;;;;5104544;28;20222;-66
2021/04/16 02:31:35;;;;;;;8.27;3.10;;;7.00;99.90;;;;;;5107198;28;20300;-66
2021/04/16 02:34:03;;;;;;;10.10;2.97;;;7.00;99.90;;;;;;5106933;28;20609;-66
2021/04/16 02:36:29;;;;;;;8.60;3.00;;;7.00;99.90;;;;;;5109472;28;20383;-66
2021/04/16 02:38:56;;;;;;;5.43;2.17;;;7.10;99.90;;;;;;5106066;28;20211;-66
2021/04/16 02:41:23;;;;;;;6.10;3.00;;;7.10;99.90;;;;;;5099923;28;20669;-66
2021/04/16 02:43:50;;;;;;;8.43;2.43;;;7.10;99.90;;;;;;5106177;28;20297;-67
2021/04/16 02:46:18;;;;;;;10.87;2.80;;;7.10;99.90;;;;;;5108331;28;20193;-66
2021/04/16 02:48:44;;;;;;;7.63;3.07;;;7.10;99.90;;;;;;5109510;28;20283;-66
2021/04/16 02:51:11;;;;;;;9.13;3.07;;;7.10;99.90;;;;;;5107375;27;20212;-66
2021/04/16 02:53:38;;;;;;;6.83;2.63;;;7.10;99.90;;;;;;5112509;27;20199;-66
2021/04/16 02:56:05;;;;;;;4.43;2.23;;;7.10;99.90;;;;;;5112947;27;20198;-66
2021/04/16 02:58:32;;;;;;;4.90;2.10;;;7.10;99.90;;;;;;5114810;27;20201;-67
2021/04/16 03:00:58;;;;;;;9.03;3.00;;;7.10;99.90;;;;;;5112622;27;20197;-66
2021/04/16 03:03:25;;;;;;;7.93;2.50;;;7.10;99.90;;;;;;5118487;27;20204;-66
2021/04/16 03:05:52;;;;;;;8.03;2.30;;;7.10;99.90;;;;;;5116115;27;20242;-66
2021/04/16 03:08:20;;;;;;;10.70;2.83;;;7.10;99.90;;;;;;5116505;27;20198;-67
2021/04/16 03:10:49;;;;;;;5.67;2.20;;;7.10;99.90;;;;;;5115800;27;20239;-66
2021/04/16 03:13:16;;;;;;;10.10;3.57;;;7.10;99.90;;;;;;5118740;27;20641;-66
2021/04/16 03:15:43;;;;;;;10.57;3.00;;;7.10;99.90;;;;;;5110142;28;20352;-66
2021/04/16 03:18:09;;;;;;;5.03;2.20;;;7.10;99.90;;;;;;5118360;27;20198;-66
2021/04/16 03:20:36;;;;;;;7.93;2.50;;;7.10;99.90;;;;;;5117206;27;20320;-66
2021/04/16 03:23:02;;;;;;;4.60;2.13;;;7.10;99.90;;;;;;5122643;27;20300;-66
2021/04/16 03:25:30;;;;;;;7.50;1.93;;;7.10;99.90;;;;;;5117711;27;20242;-66
2021/04/16 03:27:56;;;;;;;7.07;2.30;;;7.20;99.90;;;;;;5116777;27;20277;-66
2021/04/16 03:30:25;;;;;;;6.47;1.87;;;7.20;99.90;;;;;;5118509;27;20294;-66
2021/04/16 03:32:52;;;;;;;9.43;1.97;;;7.10;99.90;;;;;;5127843;27;20509;-66
2021/04/16 03:35:20;;;;;;;5.50;1.97;;;7.10;99.90;;;;;;5123526;27;20204;-66
2021/04/16 03:37:49;;;;;;;9.37;2.07;;;7.10;99.90;;;;;;5125840;27;20221;-67
2021/04/16 03:40:19;;;;;;;6.63;2.00;;;7.10;99.90;;;;;;5108108;28;20216;-67
2021/04/16 03:42:46;;;;;;;7.57;2.13;;;7.10;99.90;;;;;;5111343;28;20206;-67
2021/04/16 03:45:15;;;;;;;9.00;2.63;;;7.10;99.90;;;;;;5110252;28;20225;-67
2021/04/16 03:47:42;;;;;;;7.17;2.30;;;7.10;99.90;;;;;;5111606;28;20199;-67
2021/04/16 03:50:10;;;;;;;5.23;2.07;;;7.10;99.90;;;;;;5111308;28;20193;-67
2021/04/16 03:52:36;;;;;;;5.53;1.93;;;7.10;99.90;;;;;;5111606;27;20282;-67
2021/04/16 03:55:04;;;;;;;4.50;2.23;;;7.10;99.90;;;;;;5110673;27;20199;-67
2021/04/16 03:57:31;;;;;;;5.00;2.30;;;7.10;99.90;;;;;;5111730;28;20259;-67
2021/04/16 03:59:58;;;;;;;8.03;2.20;;;7.10;99.90;;;;;;5109186;28;20773;-67
2021/04/16 04:02:25;;;;;;;10.03;2.70;;;7.10;99.90;;;;;;5106632;27;20283;-67
2021/04/16 04:04:52;;;;;;;8.27;2.23;;;7.10;99.90;;;;;;5119227;27;20205;-67
2021/04/16 04:07:19;;;;;;;9.00;2.47;;;7.10;99.90;;;;;;5116513;27;20233;-67
2021/04/16 04:09:45;;;;;;;6.20;2.53;;;7.10;99.90;;;;;;5114112;27;20272;-67
2021/04/16 04:12:13;;;;;;;6.63;2.23;;;7.10;99.90;;;;;;5116432;27;20351;-66
2021/04/16 04:14:39;;;;;;;5.73;2.00;;;7.10;99.90;;;;;;5121683;27;20199;-67
2021/04/16 04:17:07;;;;;;;4.50;2.20;;;7.10;99.90;;;;;;5135287;27;20194;-67
2021/04/16 04:19:35;;;;;;;6.70;2.23;;;7.10;99.90;;;;;;5114631;27;20229;-67
2021/04/16 04:22:04;;;;;;;8.30;2.60;;;7.20;99.90;;;;;;5123813;27;20207;-67
2021/04/16 04:24:30;;;;;;;13.20;2.80;;;7.10;99.90;;;;;;5125877;27;20204;-67
2021/04/16 04:26:57;;;;;;;5.33;2.40;;;7.20;99.90;;;;;;5125948;27;20652;-66
2021/04/16 04:29:26;;;;;;;6.43;2.10;;;7.10;99.90;;;;;;5125325;27;20278;-66
2021/04/16 04:31:53;;;;;;;8.03;2.97;;;7.20;99.90;;;;;;5126322;27;20186;-66
2021/04/16 04:34:22;;;;;;;8.27;3.00;;;7.10;99.90;;;;;;5126558;27;20214;-66
2021/04/16 04:36:51;;;;;;;11.27;3.50;;;7.20;99.90;;;;;;5126213;27;20206;-67
2021/04/16 04:39:19;;;;;;;9.87;4.10;;;7.20;99.90;;;;;;5101144;28;20667;-67
2021/04/16 04:41:46;;;;;;;10.07;3.10;;;7.10;99.90;;;;;;5110009;28;20212;-66
2021/04/16 04:44:12;;;;;;;11.03;3.73;;;7.10;99.90;;;;;;5109788;28;20295;-67
2021/04/16 04:46:39;;;;;;;9.27;2.97;;;7.20;99.90;;;;;;5109713;27;20649;-66
2021/04/16 04:49:07;;;;;;;8.43;3.03;;;7.10;99.90;;;;;;5110140;28;20288;-67
2021/04/16 04:51:36;;;;;;;11.90;3.40;;;7.10;99.90;;;;;;5107278;28;20665;-67
2021/04/16 04:54:03;;;;;;;12.30;3.50;;;7.10;99.90;;;;;;5113505;27;20200;-67
2021/04/16 04:56:29;;;;;;;7.87;3.40;;;7.10;99.90;;;;;;5114748;27;20205;-67
2021/04/16 04:58:56;;;;;;;6.33;2.03;;;7.00;99.90;;;;;;5111467;27;20231;-66
2021/04/16 05:01:23;;;;;;;7.20;2.47;;;7.10;99.90;;;;;;5114608;27;20996;-67
2021/04/16 05:03:49;;;;;;;5.17;2.00;;;7.90;99.90;;;;;;5119885;27;20222;-66
2021/04/16 05:06:16;;;;;;;10.00;3.40;;;7.00;99.90;;;;;;5115303;27;20315;-67
2021/04/16 05:08:43;;;;;;;8.13;2.87;;;7.00;99.90;;;;;;5116633;27;20300;-67
2021/04/16 05:11:11;;;;;;;6.30;2.57;;;7.00;99.90;;;;;;5119295;27;20624;-67
2021/04/16 05:13:38;;;;;;;8.00;2.73;;;7.00;99.90;;;;;;5123206;27;20203;-67
2021/04/16 05:16:07;;;;;;;6.77;2.87;;;7.00;99.90;;;;;;5117797;27;20287;-67
2021/04/16 05:18:35;;;;;;;9.43;3.43;;;7.10;99.90;;;;;;5109567;28;20201;-67
2021/04/16 05:21:02;;;;;;;6.90;2.33;;;7.10;99.90;;;;;;5109642;27;20518;-67
2021/04/16 05:23:28;;;;;;;7.93;2.77;;;7.20;99.90;;;;;;5108711;28;20675;-67
2021/04/16 05:25:56;;;;;;;9.77;3.70;;;7.10;99.90;;;;;;5107694;27;20256;-67
2021/04/16 05:28:23;;;;;;;11.00;4.00;;;7.20;99.90;;;;;;5108359;28;20234;-67
2021/04/16 05:30:49;;;;;;;7.07;3.33;;;7.20;99.90;;;;;;5106856;27;20234;-67
2021/04/16 05:33:16;;;;;;;9.50;3.53;;;7.20;99.90;;;;;;5110239;28;20573;-67
2021/04/16 05:35:43;;;;;;;11.23;3.63;;;7.30;99.90;;;;;;5108074;27;20204;-65
2021/04/16 05:38:10;;;;;;;11.67;4.37;;;7.30;99.90;;;;;;5108545;28;20607;-67
2021/04/16 05:40:36;;;;;;;11.23;4.80;;;7.30;99.90;;;;;;5101218;27;20218;-67
2021/04/16 05:43:04;;;;;;;17.93;3.90;;;7.30;99.90;;;;;;5107823;28;20285;-67
2021/04/16 05:45:30;;;;;;;7.00;2.70;;;7.30;99.90;;;;;;5107919;28;20223;-67
2021/04/16 05:47:57;;;;;;;7.33;1.97;;;7.40;99.90;;;;;;5109923;28;20197;-67
2021/04/16 05:50:23;;;;;;;6.80;1.70;;;7.40;99.90;;;;;;5108831;28;20271;-67
2021/04/16 05:52:50;;;;;;;3.63;1.20;;;7.40;99.90;;;;;;5109850;28;20725;-67
2021/04/16 05:55:16;;;;;;;3.93;1.40;;;7.40;99.90;;;;;;5108416;28;20260;-67
2021/04/16 05:57:43;;;;;;;5.80;1.10;;;7.40;99.90;;;;;;5108922;28;20206;-67
2021/04/16 06:00:12;;;;;;;6.30;1.40;;;7.40;99.90;;;;;;5114799;28;20228;-67
2021/04/16 06:02:41;;;;;;;6.10;1.70;;;7.30;99.90;;;;;;5101555;28;20207;-67
2021/04/16 06:05:11;;;;;;;3.40;1.50;;;7.30;99.90;;;;;;5118001;28;20230;-67
2021/04/16 06:07:38;;;;;;;6.87;2.33;;;7.30;99.90;;;;;;5107710;28;20253;-67
2021/04/16 06:10:07;;;;;;;9.47;2.20;;;7.30;99.90;;;;;;5105194;28;20217;-67
2021/04/16 06:12:34;;;;;;;10.30;2.97;;;7.30;99.90;;;;;;5107232;28;20271;-67
2021/04/16 06:15:01;;;;;;;5.97;2.90;;;7.30;99.90;;;;;;5099616;28;20195;-67
2021/04/16 06:17:28;;;;;;;8.90;2.90;;;7.30;99.90;;;;;;5108193;28;20759;-67
2021/04/16 06:19:55;;;;;;;11.93;2.70;;;7.20;99.90;;;;;;5107545;28;20229;-67
2021/04/16 06:22:21;;;;;;;12.37;4.17;;;7.30;99.90;;;;;;5108768;28;20197;-66
2021/04/16 06:24:49;;;;;;;12.53;4.20;;;7.30;99.90;;;;;;5110480;28;20248;-67
2021/04/16 06:27:16;;;;;;;14.57;6.03;;;7.30;99.90;;;;;;5106212;28;20254;-67
2021/04/16 06:29:43;;;;;;;10.97;3.80;;;7.30;99.90;;;;;;5112790;27;20206;-67
2021/04/16 06:32:11;;;;;;;8.97;3.07;;;7.30;99.90;;;;;;5111347;27;20228;-67
2021/04/16 06:34:39;;;;;;;7.43;2.03;;;7.30;99.90;;;;;;5111906;28;20615;-67
2021/04/16 06:37:05;;;;;;;3.07;1.40;;;7.20;99.90;;;;;;5110527;27;20198;-67
2021/04/16 06:39:32;;;;;;;1.47;1.37;;;7.30;99.90;;;;;;5108002;28;20242;-66
2021/04/16 06:42:02;;;;;;;4.67;1.57;;;7.20;99.90;;;;;;5105509;27;20695;-67
2021/04/16 06:44:31;;;;;;;5.30;1.63;;;7.20;99.90;;;;;;5110226;27;20290;-67
2021/04/16 06:47:03;;;;;;;5.70;1.30;;;7.20;99.90;;;;;;5111593;27;20336;-67
2021/04/16 06:49:31;;;;;;;2.83;1.20;;;7.20;99.90;;;;;;5110041;28;20210;-65
2021/04/16 06:52:02;;;;;;;4.20;1.50;;;7.30;99.90;;;;;;5109819;28;20653;-66
2021/04/16 06:54:41;;;;;;;5.97;1.70;;;7.30;99.90;;;;;;5110368;28;20206;-66
2021/04/16 06:57:34;;;;;;;5.07;1.60;;;7.30;99.90;;;;;;5112142;27;20687;-66
2021/04/16 07:00:13;;;;;;;6.40;1.27;;;7.30;99.90;;;;;;5108295;27;20235;-67
2021/04/16 07:02:47;;;;;;;3.33;1.40;;;7.30;99.90;;;;;;5103673;28;20682;-66
2021/04/16 07:05:23;;;;;;;6.00;1.53;;;7.30;99.90;;;;;;5103901;27;20294;-67
2021/04/16 07:07:51;;;;;;;3.13;1.40;;;7.40;99.90;;;;;;5107040;27;20233;-66
2021/04/16 07:10:22;;;;;;;5.57;1.60;;;7.40;99.90;;;;;;5109691;28;20281;-66
2021/04/16 07:12:50;;;;;;;2.90;1.30;;;7.40;99.90;;;;;;5111049;27;20214;-66
2021/04/16 07:15:21;;;;;;;4.07;1.13;;;7.50;99.90;;;;;;5107351;27;20203;-66
2021/04/16 07:17:48;;;;;;;11.93;2.50;;;7.50;99.90;;;;;;5118911;27;20201;-67
2021/04/16 07:20:21;;;;;;;4.97;1.30;;;7.50;99.90;;;;;;5111723;27;20644;-66
2021/04/16 07:22:51;;;;;;;9.20;1.77;;;7.50;99.90;;;;;;5109502;27;20595;-66
2021/04/16 07:25:43;;;;;;;3.80;1.73;;;7.50;99.90;;;;;;5108860;27;20288;-66
2021/04/16 07:28:12;;;;;;;4.77;1.43;;;7.50;99.90;;;;;;5026363;28;20595;-66
2021/04/16 07:30:44;;;;;;;7.13;1.30;;;7.50;99.90;;;;;;5025932;28;20731;-65
2021/04/16 07:33:26;;;;;;;4.10;1.07;;;7.50;99.90;;;;;;5030824;28;20215;-66
2021/04/16 07:35:56;;;;;;;3.77;1.13;;;7.50;99.90;;;;;;5011888;28;20199;-66
2021/04/16 07:38:29;;;;;;;4.53;1.43;;;7.50;99.90;;;;;;5015626;28;20673;-66
2021/04/16 07:41:14;;;;;;;7.27;1.40;;;7.60;99.90;;;;;;5026938;28;20605;-66
2021/04/16 07:43:45;;;;;;;6.27;1.50;;;7.80;99.90;;;;;;5025980;28;20209;-67
2021/04/16 07:46:36;;;;;;;3.13;1.17;;;8.10;99.90;;;;;;5028269;28;20217;-66
2021/04/16 07:49:18;;;;;;;6.13;1.30;;;8.30;99.90;;;;;;5028603;28;20304;-66
2021/04/16 07:51:47;;;;;;;3.13;1.27;;;8.30;99.90;;;;;;5026857;28;20206;-66
2021/04/16 07:54:18;;;;;;;5.10;1.40;;;8.30;99.90;;;;;;5021897;28;20437;-67
2021/04/16 07:56:45;;;;;;;6.73;1.87;;;8.30;99.90;;;;;;5026456;28;20293;-67
2021/04/16 07:59:14;;;;;;;7.77;2.50;;;8.20;99.90;;;;;;5004135;28;20210;-66
2021/04/16 08:01:43;;;;;;;4.20;1.90;;;8.20;99.90;;;;;;5018748;28;20241;-66
2021/04/16 08:04:29;;;;;;;4.83;2.03;;;8.20;99.90;;;;;;5033907;28;20196;-66
2021/04/16 08:07:15;;;;;;;4.73;1.40;;;8.20;99.90;;;;;;5105015;28;20281;-67
2021/04/16 08:09:42;;;;;;;4.70;1.57;;;8.10;99.90;;;;;;5106408;28;20233;-67
2021/04/16 08:12:14;;;;;;;4.43;1.60;;;8.00;99.90;;;;;;5109042;28;20183;-67
2021/04/16 08:14:43;;;;;;;2.50;1.30;;;7.90;99.90;;;;;;5106762;28;20644;-66
2021/04/16 08:17:18;;;;;;;7.40;1.97;;;7.90;99.90;;;;;;5108091;28;20214;-66
2021/04/16 08:19:45;;;;;;;3.27;1.50;;;7.90;99.90;;;;;;5106980;27;20250;-67
2021/04/16 08:22:14;;;;;;;6.27;1.40;;;7.90;99.90;;;;;;5110390;27;20742;-67
2021/04/16 08:24:48;;;;;;;4.50;1.10;;;8.10;99.90;;;;;;5101295;28;20234;-68
2021/04/16 08:27:35;;;;;;;6.87;1.50;;;8.40;99.90;;;;;;5108779;28;20207;-68
2021/04/16 08:30:09;;;;;;;6.03;1.47;;;8.70;99.90;;;;;;5105450;27;20188;-68
2021/04/16 08:32:40;;;;;;;4.63;1.17;;;9.10;99.90;;;;;;5108036;27;20286;-68
2021/04/16 08:35:15;;;;;;;3.70;1.00;;;9.60;99.90;;;;;;5107614;28;20575;-68
2021/04/16 08:37:44;;;;;;;1.93;0.90;;;9.80;99.90;;;;;;5106868;27;20204;-68
2021/04/16 08:40:15;;;;;;;4.37;2.20;;;9.80;99.90;;;;;;5102790;28;21194;-68
2021/04/16 08:42:43;;;;;;;6.20;1.10;;;9.70;99.90;;;;;;5102039;28;20283;-67
2021/04/16 08:45:13;;;;;;;3.03;1.20;;;9.60;99.90;;;;;;5105561;28;20604;-68
2021/04/16 08:47:51;;;;;;;2.57;0.93;;;9.40;99.90;;;;;;5107018;28;20677;-68
2021/04/16 08:50:21;;;;;;;2.37;1.10;;;9.30;99.90;;;;;;5106480;27;20536;-67
2021/04/16 08:52:51;;;;;;;2.97;1.30;;;9.20;99.90;;;;;;5108749;28;20222;-67
2021/04/16 08:55:25;;;;;;;3.37;1.57;;;9.10;99.90;;;;;;5106979;28;20211;-67
2021/04/16 08:57:56;;;;;;;4.57;1.80;;;9.00;99.90;;;;;;5108433;28;20204;-67
2021/04/16 09:00:30;;;;;;;2.57;1.30;;;8.90;99.90;;;;;;5127478;27;20311;-68
2021/04/16 09:02:58;;;;;;;7.63;1.60;;;8.80;99.90;;;;;;5103093;27;20750;-67
2021/04/16 09:05:27;;;;;;;2.37;1.50;;;8.80;99.90;;;;;;5107795;27;20277;-68
2021/04/16 09:07:58;;;;;;;5.77;1.20;;;8.80;99.90;;;;;;5114682;27;20215;-67
2021/04/16 09:10:46;;;;;;;2.97;1.23;;;8.80;99.90;;;;;;5115164;27;20610;-68
2021/04/16 09:13:57;;;;;;;3.77;1.20;;;8.80;99.90;;;;;;5106836;27;20211;-66
2021/04/16 09:16:51;;;;;;;5.17;1.03;;;8.80;99.90;;;;;;5113312;27;20285;-67
2021/04/16 09:19:37;;;;;;;4.87;1.20;;;9.00;99.90;;;;;;5103653;27;20264;-67
2021/04/16 09:22:24;;;;;;;3.47;1.30;;;9.40;99.90;;;;;;5111592;27;20231;-67
2021/04/16 09:24:53;;;;;;;2.53;1.20;;;9.80;99.90;;;;;;5109929;27;20297;-66
2021/04/16 09:27:37;;;;;;;4.77;1.50;;;10.10;99.90;;;;;;5116265;27;20203;-67
2021/04/16 09:30:32;;;;;;;6.73;1.43;;;10.60;99.90;;;;;;5111932;27;20191;-67
2021/04/16 09:33:19;;;;;;;2.30;1.00;;;11.20;99.90;;;;;;5111729;27;20208;-67
2021/04/16 09:35:53;;;;;;;7.20;1.93;;;11.30;99.90;;;;;;5120749;27;20219;-67
2021/04/16 09:38:58;;;;;;;5.73;1.10;;;11.20;99.90;;;;;;5110316;27;20695;-67
2021/04/16 09:41:35;;;;;;;2.67;1.17;;;11.30;99.90;;;;;;5107442;28;20232;-67
2021/04/16 09:44:37;;;;;;;5.63;1.50;;;11.30;99.90;;;;;;5106460;27;20225;-66
2021/04/16 09:47:05;;;;;;;1.93;1.10;;;11.30;99.90;;;;;;5109254;27;20203;-67
2021/04/16 09:49:40;;;;;;;3.97;1.43;;;11.20;99.90;;;;;;5108228;28;20644;-67
2021/04/16 09:52:45;;;;;;;17.00;2.20;;;10.90;99.90;;;;;;5104199;28;20284;-67
2021/04/16 09:55:49;;;;;;;5.07;1.60;;;10.60;99.90;;;;;;5106438;28;20209;-67
2021/04/16 09:58:48;;;;;;;8.33;2.30;;;10.20;99.90;;;;;;5106186;28;20229;-67
2021/04/16 10:01:17;;;;;;;4.10;1.90;;;10.00;99.90;;;;;;5094897;28;20432;-67
2021/04/16 10:03:47;;;;;;;4.67;1.30;;;9.70;99.90;;;;;;5106451;28;20196;-66
2021/04/16 10:06:22;;;;;;;4.80;1.40;;;9.50;99.90;;;;;;5105417;28;20950;-67
2021/04/16 10:09:11;;;;;;;3.40;1.20;;;9.40;99.90;;;;;;5106458;28;20202;-66
2021/04/16 10:11:38;;;;;;;6.10;1.30;;;9.30;99.90;;;;;;5107647;28;20258;-67
2021/04/16 10:14:16;;;;;;;1.33;1.10;;;9.20;99.90;;;;;;5106671;28;20202;-67
2021/04/16 10:16:45;;;;;;;7.33;1.20;;;9.20;99.90;;;;;;5102938;28;20210;-67
2021/04/16 10:19:14;;;;;;;4.57;1.50;;;9.10;99.90;;;;;;5106529;28;20294;-67
2021/04/16 10:21:42;;;;;;;4.57;1.27;;;9.30;99.90;;;;;;5108016;28;20229;-67
2021/04/16 10:25:07;;;;;;;2.33;1.10;;;9.40;99.90;;;;;;5105788;28;20591;-67
2021/04/16 12:38:07;;;;;;;4.40;1.83;;;8.80;99.90;;;;;;5115873;27;20191;-67
2021/04/16 12:40:34;;;;;;;4.27;1.60;;;8.80;99.90;;;;;;5095633;27;20339;-67
2021/04/16 12:43:03;;;;;;;10.57;2.07;;;8.80;99.90;;;;;;5106431;28;20227;-67
2021/04/16 12:45:30;;;;;;;7.63;2.33;;;8.80;99.90;;;;;;5109109;27;20215;-67
2021/04/16 12:47:58;;;;;;;15.90;2.23;;;8.80;99.90;;;;;;5109686;27;20720;-67
2021/04/16 12:50:27;;;;;;;7.03;1.80;;;8.80;99.90;;;;;;5100631;27;20283;-67
2021/04/16 12:52:53;;;;;;;3.73;1.83;;;8.80;99.90;;;;;;5106867;27;20196;-66
2021/04/16 12:55:20;;;;;;;6.63;1.93;;;8.80;99.90;;;;;;5110615;27;20208;-67
2021/04/16 12:57:49;;;;;;;8.93;2.27;;;8.80;99.90;;;;;;5109345;28;20191;-67
2021/04/16 13:00:20;;;;;;;7.67;1.63;;;8.70;99.90;;;;;;5106632;27;20223;-67
2021/04/16 13:02:47;;;;;;;12.57;2.03;;;8.60;99.90;;;;;;5109307;28;20647;-66
2021/04/16 13:05:16;;;;;;;8.00;1.87;;;8.50;99.90;;;;;;5107836;27;20667;-67
2021/04/16 13:07:43;;;;;;;3.37;1.57;;;8.40;99.90;;;;;;5108302;28;20243;-67
2021/04/16 13:10:11;;;;;;;6.77;1.80;;;8.30;99.90;;;;;;5112387;27;20203;-67
2021/04/16 13:12:38;;;;;;;3.10;1.50;;;8.40;99.90;;;;;;5108928;27;20280;-67
2021/04/16 13:15:06;;;;;;;4.53;1.63;;;8.30;99.90;;;;;;5119943;27;20274;-67
2021/04/16 13:17:33;;;;;;;6.60;1.70;;;8.20;99.90;;;;;;5113822;27;20264;-67
2021/04/16 13:19:59;;;;;;;5.80;1.70;;;8.20;99.90;;;;;;5108760;27;20228;-67
2021/04/16 13:22:27;;;;;;;4.93;1.80;;;8.10;99.90;;;;;;5117681;27;20207;-67
2021/04/16 13:24:55;;;;;;;9.20;1.73;;;8.10;99.90;;;;;;5117688;27;20213;-67
2021/04/16 13:27:24;;;;;;;7.23;1.97;;;8.00;99.90;;;;;;5112369;27;20275;-67
2021/04/16 13:29:50;;;;;;;6.73;1.50;;;8.00;99.90;;;;;;5115255;27;20706;-67
2021/04/16 13:32:19;;;;;;;8.00;1.87;;;8.00;99.90;;;;;;5120762;27;20791;-67
2021/04/16 13:34:46;;;;;;;3.80;1.40;;;7.90;99.90;;;;;;5104436;27;20234;-68
2021/04/16 13:37:18;;;;;;;4.93;1.83;;;7.80;99.90;;;;;;5107487;28;20564;-67
2021/04/16 13:39:47;;;;;;;6.07;1.88;;;7.80;99.90;;;;;;5106378;28;20814;-67
2021/04/16 13:42:15;;;;;;;2.67;1.47;;;7.70;99.90;;;;;;5107306;28;20253;-67
2021/04/16 13:44:41;;;;;;;3.53;1.50;;;7.70;99.90;;;;;;5106118;28;20697;-67
2021/04/16 13:47:14;;;;;;;5.47;1.77;;;7.80;99.90;;;;;;5107811;28;20211;-67
2021/04/16 13:49:41;;;;;;;3.40;1.50;;;7.80;99.90;;;;;;5095159;28;20642;-67
2021/04/16 13:52:08;;;;;;;10.10;2.33;;;7.80;99.90;;;;;;5108944;27;20278;-67
2021/04/16 13:54:36;;;;;;;5.87;1.47;;;7.80;99.90;;;;;;5105076;27;20195;-67
2021/04/16 13:57:04;;;;;;;2.67;1.23;;;7.90;99.90;;;;;;5107384;27;20218;-67
2021/04/16 13:59:31;;;;;;;7.50;2.30;;;8.00;99.90;;;;;;5103548;28;20192;-67
2021/04/16 14:01:58;;;;;;;2.60;1.20;;;8.10;99.90;;;;;;5102213;28;20589;-67
2021/04/16 14:04:27;;;;;;;4.87;1.87;;;8.10;99.90;;;;;;5107938;28;20663;-69
2021/04/16 14:06:57;;;;;;;6.20;1.97;;;8.10;99.90;;;;;;5105421;28;20594;-68
2021/04/16 14:09:25;;;;;;;4.57;1.67;;;8.10;99.90;;;;;;5106051;28;20613;-68
2021/04/16 14:11:52;;;;;;;7.20;1.70;;;8.20;99.90;;;;;;5102469;28;20245;-69
2021/04/16 14:14:25;;;;;;;4.63;1.30;;;8.20;99.90;;;;;;5130336;27;20206;-67
2021/04/16 14:16:57;;;;;;;4.33;1.70;;;8.10;99.90;;;;;;5099811;28;20287;-67
2021/04/16 14:19:26;;;;;;;9.43;2.53;;;8.10;99.90;;;;;;5104815;28;20279;-69
2021/04/16 14:21:55;;;;;;;11.70;2.87;;;8.00;99.90;;;;;;5107825;28;20208;-67
2021/04/16 14:24:22;;;;;;;10.53;2.93;;;8.00;99.90;;;;;;5097202;28;20337;-67
2021/04/16 14:26:51;;;;;;;2.77;1.20;;;7.90;99.90;;;;;;5123450;28;20656;-67
2021/04/16 14:29:17;;;;;;;5.10;1.40;;;8.80;99.90;;;;;;5118520;28;20211;-67
2021/04/16 14:31:46;;;;;;;5.70;1.50;;;7.80;99.90;;;;;;5107348;28;20252;-67
2021/04/16 14:34:15;;;;;;;3.20;1.57;;;7.90;99.90;;;;;;5114308;28;20208;-67
2021/04/16 14:36:41;;;;;;;3.00;1.40;;;8.00;99.90;;;;;;5122637;27;20293;-67
2021/04/16 14:39:09;;;;;;;4.53;1.50;;;8.00;99.90;;;;;;5116697;27;20717;-67
2021/04/16 14:41:37;;;;;;;4.00;1.47;;;8.10;99.90;;;;;;5108850;28;20208;-67
2021/04/16 14:44:06;;;;;;;3.67;1.40;;;8.10;99.90;;;;;;5106716;28;20204;-67
2021/04/16 14:46:33;;;;;;;3.90;1.37;;;8.10;99.90;;;;;;5111490;27;20207;-67
2021/04/16 14:49:01;;;;;;;4.10;1.20;;;8.10;99.90;;;;;;5112945;27;20196;-67
2021/04/16 14:51:30;;;;;;;3.30;1.35;;;8.10;99.90;;;;;;5105414;27;20494;-67
2021/04/16 14:53:59;;;;;;;3.60;1.40;;;8.10;99.90;;;;;;5113636;27;20195;-67
2021/04/16 14:56:26;;;;;;;3.73;1.47;;;8.10;99.90;;;;;;5121044;27;20682;-67
2021/04/16 14:58:59;;;;;;;3.57;1.23;;;8.10;99.90;;;;;;5112011;28;20288;-68
2021/04/16 15:01:26;;;;;;;4.47;1.30;;;8.10;99.90;;;;;;5102473;28;20245;-68
2021/04/16 15:03:53;;;;;;;4.50;0.90;;;8.10;99.90;;;;;;5114934;27;20563;-68
2021/04/16 15:06:24;;;;;;;2.10;1.00;;;7.80;99.90;;;;;;5105581;27;20203;-68
2021/04/16 15:08:56;;;;;;;7.23;1.47;;;7.90;99.90;;;;;;5112206;28;20282;-68
2021/04/16 15:11:24;;;;;;;4.40;1.13;;;7.90;99.90;;;;;;5104972;28;20289;-68
2021/04/16 15:13:50;;;;;;;5.93;1.23;;;7.90;99.90;;;;;;5107463;27;20202;-68
2021/04/16 15:16:18;;;;;;;5.07;1.97;;;7.90;99.90;;;;;;5100572;27;20236;-68
2021/04/16 15:18:46;;;;;;;3.33;1.50;;;7.90;99.90;;;;;;5102300;27;20196;-68
2021/04/16 15:21:15;;;;;;;3.20;1.40;;;8.00;99.90;;;;;;5107222;27;20232;-67